createdAt,value
2023-02-07T00:06:58.372Z,21.809
2023-02-07T00:22:00.352Z,21.605
2023-02-07T00:37:02.186Z,22.087
2023-02-07T00:52:04.127Z,21.567
2023-02-07T01:07:06.099Z,21.573
2023-02-07T01:22:08.049Z,21.765
2023-02-07T01:37:10.039Z,21.17
2023-02-07T01:52:12.002Z,21.275
2023-02-07T02:07:13.950Z,21.037
2023-02-07T02:22:15.895Z,21.672
2023-02-07T02:37:17.928Z,21.617
2023-02-07T02:52:19.836Z,21.562
2023-02-07T03:07:21.745Z,21.905
2023-02-07T03:22:23.679Z,21.936
2023-02-07T03:37:25.757Z,21.244
2023-02-07T03:52:27.672Z,21.576
2023-02-07T04:07:29.597Z,21.171
2023-02-07T04:22:31.505Z,21.465
2023-02-07T04:37:33.407Z,21.298
2023-02-07T04:52:35.473Z,21.693
2023-02-07T05:07:37.418Z,21.456
2023-02-07T05:22:39.366Z,20.953
2023-02-07T05:37:41.363Z,21.606
2023-02-07T05:52:43.298Z,20.911
2023-02-07T06:07:45.282Z,20.688
2023-02-07T06:22:47.199Z,20.802
2023-02-07T06:37:49.159Z,21.211
2023-02-07T06:52:51.062Z,21.51
2023-02-07T07:07:53.032Z,21.492
2023-02-07T07:22:55.069Z,21.464
2023-02-07T07:37:56.948Z,21.608
2023-02-07T07:52:58.960Z,21.742
2023-02-07T08:08:00.899Z,21.72
2023-02-07T08:23:02.837Z,21.705
2023-02-07T08:38:04.740Z,21.368
2023-02-07T08:53:06.663Z,21.342
2023-02-07T09:08:08.576Z,21.474
2023-02-07T09:23:10.502Z,21.637
2023-02-07T09:38:12.429Z,21.351
2023-02-07T09:53:15.685Z,20.832
2023-02-07T10:08:18.450Z,21.333
2023-02-07T10:23:20.334Z,21.46
2023-02-07T10:38:22.292Z,21.187
2023-02-07T10:53:24.288Z,20.739
2023-02-07T11:08:26.255Z,21.414
2023-02-07T11:23:28.344Z,21.064
2023-02-07T11:38:30.277Z,20.884
2023-02-07T11:53:32.194Z,21.267
2023-02-07T12:08:34.085Z,21.259
2023-02-07T12:23:42.347Z,20.435
2023-02-07T12:38:44.850Z,20.95
2023-02-07T12:53:46.773Z,21.155
2023-02-07T13:08:48.726Z,20.472
2023-02-07T13:23:51.178Z,21.055
2023-02-07T13:38:53.126Z,21.206
2023-02-07T13:53:55.274Z,20.513
2023-02-07T14:08:57.441Z,21.106
2023-02-07T14:23:59.364Z,21.355
2023-02-07T14:39:01.307Z,20.881
2023-02-07T14:54:03.340Z,21.889
2023-02-07T15:09:05.359Z,22.144
2023-02-07T15:24:07.379Z,20.956
2023-02-07T15:39:09.318Z,21.914
2023-02-07T15:54:11.360Z,22.206
2023-02-07T16:09:13.281Z,22.44
2023-02-07T16:24:15.193Z,22.432
2023-02-07T16:39:17.127Z,21.26
2023-02-07T16:54:19.143Z,21.384
2023-02-07T17:09:21.091Z,21.695
2023-02-07T17:24:22.989Z,21.867
2023-02-07T17:39:24.904Z,21.071
2023-02-07T17:54:26.838Z,21.028
2023-02-07T18:09:28.771Z,21.326
2023-02-07T18:24:30.660Z,21.655
2023-02-07T18:39:32.609Z,22.022
2023-02-07T18:54:34.763Z,21.008
2023-02-07T19:09:36.786Z,20.988
2023-02-07T19:24:38.946Z,21.365
2023-02-07T19:39:40.890Z,21.982
2023-02-07T19:54:42.791Z,21.704
2023-02-07T20:09:44.755Z,22.003
2023-02-07T20:24:46.706Z,22.335
2023-02-07T20:39:48.705Z,22.61
2023-02-07T20:54:51.365Z,22.677
2023-02-07T21:09:53.776Z,22.637
2023-02-07T21:24:55.934Z,23.313
2023-02-07T21:39:57.833Z,22.082
2023-02-07T21:54:59.764Z,22.092
2023-02-07T22:10:01.773Z,22.007
2023-02-07T22:25:03.697Z,22.054
2023-02-07T22:40:05.609Z,23.058
2023-02-07T22:55:07.576Z,22.523
2023-02-07T23:10:09.453Z,22.507
2023-02-07T23:25:11.557Z,22.182
2023-02-07T23:40:13.534Z,22.884
2023-02-07T23:55:15.554Z,22.534
